Time;durP1;ratioP1;P1;durP2;ratioP2;P2;SDS_P1;SDS_P2;PMS_P1;PMS_P2;Temp;Humidity;BMP_temperature;BMP_pressure;BME280_temperature;BME280_humidity;BME280_pressure;Samples;Min_cycle;Max_cycle;Signal;HPM_P1;HPM_P2
2023/03/23 00:01:21;;;;;;;13.65;8.85;;;10.40;99.90;;;;;;5020849;28;20051;-75
2023/03/23 00:03:51;;;;;;;13.02;8.70;;;10.40;99.90;;;;;;5045835;28;20037;-74
2023/03/23 00:06:19;;;;;;;17.25;11.00;;;10.40;99.90;;;;;;5040506;28;20428;-74
2023/03/23 00:08:55;;;;;;;13.50;9.63;;;10.30;99.90;;;;;;5043386;28;20141;-73
2023/03/23 00:11:22;;;;;;;16.33;11.05;;;10.50;99.90;;;;;;5006819;28;20037;-73
2023/03/23 00:13:53;;;;;;;19.63;12.45;;;10.40;99.90;;;;;;5026877;28;20531;-73
2023/03/23 00:16:31;;;;;;;18.08;12.45;;;10.40;99.90;;;;;;5038064;28;20526;-73
2023/03/23 00:18:58;;;;;;;17.83;11.25;;;10.30;99.90;;;;;;5026126;28;20048;-74
2023/03/23 00:21:35;;;;;;;22.02;15.45;;;10.40;99.90;;;;;;5024955;28;20048;-74
2023/03/23 00:24:10;;;;;;;22.95;15.95;;;10.40;99.90;;;;;;5024547;28;20128;-73
2023/03/23 00:26:39;;;;;;;26.00;17.95;;;10.30;99.90;;;;;;5026660;28;20508;-73
2023/03/23 00:29:13;;;;;;;26.33;19.38;;;10.50;99.90;;;;;;5027387;28;20067;-72
2023/03/23 00:31:39;;;;;;;31.30;22.35;;;10.40;99.90;;;;;;5026584;28;20052;-73
2023/03/23 00:34:06;;;;;;;33.83;22.60;;;10.40;99.90;;;;;;5043062;28;20049;-73
2023/03/23 00:36:35;;;;;;;32.95;21.98;;;10.40;99.90;;;;;;5043723;28;20033;-75
2023/03/23 00:39:04;;;;;;;29.10;21.33;;;10.40;99.90;;;;;;5044312;28;20049;-74
2023/03/23 00:41:30;;;;;;;30.80;21.80;;;10.40;99.90;;;;;;5021332;28;20136;-74
2023/03/23 00:43:57;;;;;;;29.15;19.98;;;10.40;99.90;;;;;;5014738;28;20053;-74
2023/03/23 00:46:24;;;;;;;36.63;21.85;;;10.50;99.90;;;;;;5041661;28;20052;-74
2023/03/23 00:48:51;;;;;;;26.17;18.50;;;10.30;99.90;;;;;;5006493;28;20056;-73
2023/03/23 00:51:19;;;;;;;23.17;14.85;;;10.40;99.90;;;;;;5041266;28;20056;-73
2023/03/23 00:53:45;;;;;;;25.75;14.05;;;10.40;99.90;;;;;;5046967;28;20120;-73
2023/03/23 00:56:11;;;;;;;21.23;10.02;;;10.40;99.90;;;;;;5041900;28;20041;-73
2023/03/23 00:58:37;;;;;;;13.50;10.40;;;10.40;99.90;;;;;;5034902;28;20045;-73
2023/03/23 01:01:03;;;;;;;16.05;10.52;;;10.20;99.90;;;;;;5041092;28;20041;-73
2023/03/23 01:03:29;;;;;;;17.42;9.98;;;10.30;99.90;;;;;;5043083;28;20132;-73
2023/03/23 01:05:55;;;;;;;15.35;10.45;;;10.40;99.90;;;;;;5039131;28;20120;-73
2023/03/23 01:08:23;;;;;;;18.30;12.23;;;10.30;99.90;;;;;;5033548;28;20049;-73
2023/03/23 01:10:50;;;;;;;15.77;11.18;;;10.30;99.90;;;;;;5028668;28;20102;-73
2023/03/23 01:13:16;;;;;;;19.08;12.40;;;10.30;99.90;;;;;;5042050;28;20033;-73
2023/03/23 01:15:42;;;;;;;20.58;13.27;;;10.30;99.90;;;;;;5036729;28;20057;-75
2023/03/23 01:18:08;;;;;;;16.35;11.95;;;10.30;99.90;;;;;;5031425;28;20106;-74
2023/03/23 01:20:35;;;;;;;20.00;12.43;;;10.50;99.90;;;;;;5046008;28;20459;-74
2023/03/23 01:23:02;;;;;;;20.95;12.35;;;10.40;99.90;;;;;;5029434;28;20049;-74
2023/03/23 01:25:34;;;;;;;19.30;12.13;;;10.50;99.90;;;;;;5039749;28;20042;-74
2023/03/23 01:28:00;;;;;;;15.33;8.70;;;10.60;99.90;;;;;;5030514;28;20115;-74
2023/03/23 01:30:26;;;;;;;19.90;10.05;;;10.60;99.90;;;;;;5037203;28;20774;-73
2023/03/23 01:32:53;;;;;;;18.85;11.45;;;10.50;99.90;;;;;;5038799;28;20080;-74
2023/03/23 01:35:19;;;;;;;17.63;10.50;;;10.60;99.90;;;;;;5039946;28;20091;-75
2023/03/23 01:37:45;;;;;;;19.52;10.30;;;10.70;99.90;;;;;;5001933;28;20132;-74
2023/03/23 01:40:11;;;;;;;13.85;10.02;;;10.50;99.90;;;;;;5025168;28;20658;-74
2023/03/23 01:42:38;;;;;;;12.93;9.85;;;10.50;99.90;;;;;;5031393;28;20132;-73
2023/03/23 01:45:16;;;;;;;13.43;9.25;;;10.60;99.90;;;;;;5032665;28;20132;-74
2023/03/23 01:47:41;;;;;;;12.38;8.63;;;10.60;99.90;;;;;;5042272;28;20042;-74
2023/03/23 01:50:07;;;;;;;15.10;9.13;;;10.70;99.90;;;;;;5036530;28;20033;-73
2023/03/23 01:52:33;;;;;;;16.35;8.98;;;10.50;99.90;;;;;;5038177;28;20053;-74
2023/03/23 01:55:00;;;;;;;19.80;8.52;;;10.70;99.90;;;;;;5042569;28;20052;-73
2023/03/23 01:57:26;;;;;;;17.42;8.75;;;10.60;99.90;;;;;;5028802;28;20040;-73
2023/03/23 01:59:55;;;;;;;14.18;7.90;;;10.60;99.90;;;;;;5022928;28;20401;-73
2023/03/23 02:02:22;;;;;;;11.63;7.38;;;10.50;99.90;;;;;;5010589;28;20883;-72
2023/03/23 02:04:48;;;;;;;14.52;7.88;;;10.60;99.90;;;;;;5044983;28;20049;-73
2023/03/23 02:07:17;;;;;;;11.88;7.78;;;10.70;99.90;;;;;;5039540;28;20053;-73
2023/03/23 02:09:42;;;;;;;11.77;7.30;;;10.60;99.90;;;;;;5041380;28;20033;-73
2023/03/23 02:12:08;;;;;;;12.10;7.28;;;10.60;99.90;;;;;;5038746;28;20049;-73
2023/03/23 02:14:34;;;;;;;12.98;7.18;;;10.60;99.90;;;;;;5042028;28;20052;-73
2023/03/23 02:17:15;;;;;;;9.98;5.90;;;10.50;99.90;;;;;;5041304;28;20393;-74
2023/03/23 02:19:41;;;;;;;12.07;6.25;;;10.60;99.90;;;;;;5046156;28;20045;-73
2023/03/23 02:22:27;;;;;;;13.10;6.55;;;10.60;99.90;;;;;;5038912;28;20049;-73
2023/03/23 02:25:12;;;;;;;12.02;6.90;;;10.60;99.90;;;;;;5034632;28;20048;-73
2023/03/23 02:27:50;;;;;;;12.38;6.10;;;10.70;99.90;;;;;;5045419;28;20069;-73
2023/03/23 02:30:48;;;;;;;9.57;4.93;;;10.70;99.90;;;;;;5036816;28;20519;-72
2023/03/23 02:33:32;;;;;;;12.10;6.05;;;10.60;99.90;;;;;;5040300;28;20060;-72
2023/03/23 02:36:04;;;;;;;12.75;5.40;;;10.60;99.90;;;;;;5028162;28;20053;-72
2023/03/23 02:38:38;;;;;;;9.18;4.80;;;10.70;99.90;;;;;;5046819;28;20155;-72
2023/03/23 02:41:04;;;;;;;11.98;5.45;;;10.60;99.90;;;;;;5044862;28;20068;-73
2023/03/23 02:43:36;;;;;;;11.23;4.82;;;10.60;99.90;;;;;;5043925;28;20045;-73
2023/03/23 02:46:06;;;;;;;9.45;4.60;;;10.80;99.90;;;;;;5045967;28;20048;-72
2023/03/23 02:48:33;;;;;;;11.07;5.00;;;10.70;99.90;;;;;;5042190;28;20045;-73
2023/03/23 02:51:00;;;;;;;8.52;5.07;;;10.70;99.90;;;;;;5043796;28;20145;-72
2023/03/23 02:53:28;;;;;;;9.38;5.40;;;10.70;99.90;;;;;;5041833;28;20065;-72
2023/03/23 02:55:56;;;;;;;11.88;5.28;;;10.80;99.90;;;;;;5043985;28;20055;-73
2023/03/23 02:58:21;;;;;;;12.43;4.32;;;10.80;99.90;;;;;;5039976;28;20130;-71
2023/03/23 03:00:51;;;;;;;10.35;4.90;;;10.80;99.90;;;;;;5035740;28;20072;-74
2023/03/23 03:03:20;;;;;;;8.30;4.40;;;10.80;99.90;;;;;;5042700;28;20049;-73
2023/03/23 03:06:39;;;;;;;10.82;5.07;;;10.70;99.90;;;;;;5046158;28;20074;-73
2023/03/23 03:09:43;;;;;;;14.15;5.22;;;10.80;99.90;;;;;;4964459;28;20481;-72
2023/03/23 03:12:16;;;;;;;11.20;4.95;;;10.80;99.90;;;;;;4970919;28;20588;-72
2023/03/23 03:14:58;;;;;;;10.38;4.97;;;10.70;99.90;;;;;;5031632;28;20045;-72
2023/03/23 03:17:26;;;;;;;7.57;4.10;;;10.80;99.90;;;;;;5026714;28;20040;-73
2023/03/23 03:20:01;;;;;;;9.05;4.80;;;10.70;99.90;;;;;;5032680;28;20447;-74
2023/03/23 03:22:29;;;;;;;9.38;3.80;;;10.80;99.90;;;;;;5043020;28;20049;-73
2023/03/23 03:24:57;;;;;;;12.25;3.58;;;10.70;99.90;;;;;;5023467;28;20124;-74
2023/03/23 03:27:24;;;;;;;13.32;4.35;;;10.70;99.90;;;;;;5024477;28;20232;-73
2023/03/23 03:29:56;;;;;;;7.75;3.13;;;10.70;99.90;;;;;;5036406;28;20041;-74
2023/03/23 03:32:30;;;;;;;6.10;3.67;;;10.80;99.90;;;;;;5041967;28;20034;-74
2023/03/23 03:35:00;;;;;;;9.43;3.75;;;10.70;99.90;;;;;;5040434;28;20055;-74
2023/03/23 03:37:27;;;;;;;15.73;5.75;;;10.70;99.90;;;;;;5034802;28;20103;-73
2023/03/23 03:39:52;;;;;;;11.10;4.22;;;10.60;99.90;;;;;;5041849;28;20497;-72
2023/03/23 03:42:18;;;;;;;9.60;4.60;;;10.60;99.90;;;;;;5045249;28;20048;-72
2023/03/23 03:44:43;;;;;;;10.75;4.43;;;10.50;99.90;;;;;;5025080;28;20045;-74
2023/03/23 03:47:09;;;;;;;9.80;4.47;;;10.50;99.90;;;;;;5023156;28;20052;-73
2023/03/23 03:49:35;;;;;;;5.85;3.10;;;10.60;99.90;;;;;;5010835;28;20033;-74
2023/03/23 03:52:01;;;;;;;10.32;3.63;;;10.40;99.90;;;;;;5044673;28;20038;-75
2023/03/23 03:54:27;;;;;;;7.88;4.00;;;10.50;99.90;;;;;;5045473;28;20047;-75
2023/03/23 03:56:57;;;;;;;10.52;3.75;;;10.40;99.90;;;;;;5037106;28;20040;-74
2023/03/23 03:59:23;;;;;;;4.50;2.28;;;10.50;99.90;;;;;;5033580;28;20049;-73
2023/03/23 04:01:53;;;;;;;11.85;3.30;;;10.60;99.90;;;;;;5028753;28;20044;-73
2023/03/23 04:04:21;;;;;;;11.00;3.65;;;10.50;99.90;;;;;;5016893;28;20770;-73
2023/03/23 04:06:48;;;;;;;11.88;3.67;;;10.60;99.90;;;;;;5027677;28;20454;-73
2023/03/23 04:09:14;;;;;;;11.32;4.40;;;10.40;99.90;;;;;;5004589;28;20038;-73
2023/03/23 04:11:40;;;;;;;8.10;3.20;;;10.60;99.90;;;;;;5045773;28;20057;-72
2023/03/23 04:14:06;;;;;;;6.05;2.90;;;10.60;99.90;;;;;;5024431;28;20068;-73
2023/03/23 04:16:34;;;;;;;7.18;2.60;;;10.50;99.90;;;;;;5043817;28;20052;-72
2023/03/23 04:19:00;;;;;;;5.45;1.77;;;10.40;99.90;;;;;;5020095;28;20489;-72
2023/03/23 04:21:28;;;;;;;6.75;1.60;;;10.50;99.90;;;;;;5045742;28;20033;-72
2023/03/23 04:23:55;;;;;;;11.10;2.50;;;10.40;99.90;;;;;;5040014;28;20053;-72
2023/03/23 04:26:21;;;;;;;10.90;2.65;;;10.40;99.90;;;;;;5042886;28;20107;-72
2023/03/23 04:28:50;;;;;;;10.40;1.85;;;10.40;99.90;;;;;;5029017;28;20048;-72
2023/03/23 04:31:15;;;;;;;9.85;2.03;;;10.40;99.90;;;;;;5041290;28;20182;-73
2023/03/23 04:33:41;;;;;;;10.23;3.00;;;10.40;99.90;;;;;;5029534;28;20112;-73
2023/03/23 04:36:07;;;;;;;10.45;2.65;;;10.30;99.90;;;;;;5027803;28;20143;-74
2023/03/23 04:38:33;;;;;;;13.02;2.53;;;10.50;99.90;;;;;;5025326;28;20579;-73
2023/03/23 04:41:03;;;;;;;6.07;2.05;;;10.50;99.90;;;;;;5031596;28;20140;-73
2023/03/23 04:43:29;;;;;;;8.93;2.13;;;10.50;99.90;;;;;;5034090;28;20044;-73
2023/03/23 04:45:56;;;;;;;11.32;3.00;;;10.40;99.90;;;;;;5039376;28;20049;-72
2023/03/23 04:48:24;;;;;;;15.00;3.20;;;10.40;99.90;;;;;;5039779;28;20041;-73
2023/03/23 04:50:50;;;;;;;19.65;3.55;;;10.50;99.90;;;;;;5046267;28;20131;-71
2023/03/23 04:53:17;;;;;;;11.73;2.72;;;10.40;99.90;;;;;;5033202;28;20513;-73
2023/03/23 04:55:43;;;;;;;16.77;3.42;;;10.30;99.90;;;;;;5044821;28;20086;-72
2023/03/23 04:58:12;;;;;;;14.02;2.63;;;10.40;99.90;;;;;;5027937;28;20037;-72
2023/03/23 05:00:38;;;;;;;19.85;4.13;;;10.30;99.90;;;;;;5045498;28;20049;-73
2023/03/23 05:03:04;;;;;;;14.75;3.00;;;10.20;99.90;;;;;;5047196;28;20133;-72
2023/03/23 05:05:30;;;;;;;10.65;2.78;;;10.30;99.90;;;;;;5039858;28;20036;-72
2023/03/23 05:07:56;;;;;;;11.98;3.05;;;10.30;99.90;;;;;;5036546;28;20045;-73
2023/03/23 05:10:22;;;;;;;13.65;2.88;;;10.20;99.90;;;;;;5031209;28;20044;-73
2023/03/23 05:12:48;;;;;;;11.73;2.35;;;10.30;99.90;;;;;;5032087;28;20083;-73
2023/03/23 05:15:16;;;;;;;18.15;4.13;;;10.20;99.90;;;;;;5041744;28;20130;-73
2023/03/23 05:17:46;;;;;;;14.38;2.90;;;10.30;99.90;;;;;;5012592;28;20045;-73
2023/03/23 05:20:18;;;;;;;21.15;3.90;;;10.20;99.90;;;;;;5043362;28;20064;-72
2023/03/23 05:22:44;;;;;;;17.27;4.07;;;10.20;99.90;;;;;;5045731;28;20079;-72
2023/03/23 05:25:10;;;;;;;24.17;5.95;;;10.20;99.90;;;;;;5040296;28;20125;-71
2023/03/23 05:27:37;;;;;;;26.85;4.40;;;10.10;99.90;;;;;;5044723;28;20401;-73
2023/03/23 05:30:04;;;;;;;13.25;3.38;;;10.10;99.90;;;;;;5041283;28;20503;-72
2023/03/23 05:32:30;;;;;;;21.65;4.28;;;10.10;99.90;;;;;;5032982;28;20069;-72
2023/03/23 05:34:57;;;;;;;17.42;3.15;;;10.00;99.90;;;;;;5043411;28;20127;-72
2023/03/23 05:37:23;;;;;;;26.40;4.88;;;10.00;99.90;;;;;;5044465;28;20038;-72
2023/03/23 05:39:53;;;;;;;18.17;3.78;;;10.00;99.90;;;;;;5042564;28;20700;-72
2023/03/23 05:42:22;;;;;;;25.27;4.38;;;10.00;99.90;;;;;;5026049;28;20188;-72
2023/03/23 05:44:48;;;;;;;19.10;2.75;;;9.90;99.90;;;;;;5031033;28;20053;-72
2023/03/23 05:47:14;;;;;;;21.65;3.67;;;10.00;99.90;;;;;;5027276;28;20131;-73
2023/03/23 05:49:40;;;;;;;25.50;3.78;;;10.00;99.90;;;;;;5025238;28;20045;-73
2023/03/23 05:52:05;;;;;;;25.27;3.75;;;10.10;99.90;;;;;;5043097;28;20057;-73
2023/03/23 05:54:31;;;;;;;8.00;2.55;;;10.00;99.90;;;;;;5042874;28;20055;-73
2023/03/23 05:56:57;;;;;;;16.85;2.42;;;10.00;99.90;;;;;;5024759;28;20036;-73
2023/03/23 05:59:26;;;;;;;13.48;2.92;;;9.90;99.90;;;;;;5042133;28;20051;-74
2023/03/23 06:01:53;;;;;;;15.18;2.80;;;9.80;99.90;;;;;;5045491;28;20040;-74
2023/03/23 06:04:21;;;;;;;7.70;1.85;;;9.80;99.90;;;;;;5036578;28;20060;-73
2023/03/23 06:06:46;;;;;;;9.68;2.50;;;9.70;99.90;;;;;;5042475;28;20040;-74
2023/03/23 06:09:12;;;;;;;12.20;2.25;;;9.80;99.90;;;;;;5048874;28;20516;-72
2023/03/23 06:11:38;;;;;;;15.82;3.13;;;9.70;99.90;;;;;;5043734;28;20106;-72
2023/03/23 06:14:03;;;;;;;8.88;2.15;;;9.60;99.90;;;;;;5039494;28;20033;-73
2023/03/23 06:16:29;;;;;;;8.07;1.60;;;9.50;99.90;;;;;;5043065;28;20053;-70
2023/03/23 06:18:56;;;;;;;11.75;2.80;;;9.50;99.90;;;;;;5032478;28;20059;-71
2023/03/23 06:21:22;;;;;;;11.63;2.20;;;9.40;99.90;;;;;;5049792;28;20048;-73
2023/03/23 06:23:48;;;;;;;10.80;2.28;;;9.40;99.90;;;;;;5033202;28;20049;-70
2023/03/23 06:26:16;;;;;;;14.55;2.78;;;9.40;99.90;;;;;;5050047;28;20108;-71
2023/03/23 06:28:43;;;;;;;7.70;1.90;;;9.40;99.90;;;;;;5046576;28;20044;-72
2023/03/23 06:31:09;;;;;;;15.35;3.05;;;9.50;99.90;;;;;;5043921;28;20496;-71
2023/03/23 06:33:37;;;;;;;11.10;2.83;;;9.50;99.90;;;;;;5029516;28;20051;-72
2023/03/23 06:36:04;;;;;;;11.50;2.72;;;9.50;99.90;;;;;;5052354;28;20052;-71
2023/03/23 06:38:31;;;;;;;14.13;2.83;;;9.60;99.90;;;;;;5036864;28;20075;-71
2023/03/23 06:40:57;;;;;;;14.60;3.03;;;9.60;99.90;;;;;;5026586;28;20032;-72
2023/03/23 06:43:24;;;;;;;17.45;3.30;;;9.60;99.90;;;;;;5029903;28;20146;-71
2023/03/23 06:45:50;;;;;;;19.25;4.00;;;9.60;99.90;;;;;;5046231;28;20053;-71
2023/03/23 06:48:17;;;;;;;18.67;3.65;;;9.60;99.90;;;;;;5027493;28;20111;-70
2023/03/23 06:50:46;;;;;;;24.23;4.63;;;9.70;99.90;;;;;;5031574;28;20049;-71
2023/03/23 06:53:12;;;;;;;25.17;4.57;;;9.70;99.90;;;;;;5015244;28;20041;-71
2023/03/23 06:55:38;;;;;;;24.98;3.90;;;9.70;99.90;;;;;;5047486;28;20742;-70
2023/03/23 06:58:08;;;;;;;21.13;4.28;;;9.80;99.90;;;;;;5024162;28;20580;-70
2023/03/23 07:00:34;;;;;;;26.67;3.60;;;9.90;99.90;;;;;;5048321;28;20557;-71
2023/03/23 07:02:59;;;;;;;36.92;5.80;;;9.90;99.90;;;;;;5028992;28;20123;-70
2023/03/23 07:05:26;;;;;;;27.95;6.25;;;10.00;99.90;;;;;;5025630;28;20053;-74
2023/03/23 07:07:51;;;;;;;25.30;5.15;;;10.00;99.90;;;;;;5044608;28;20183;-74
2023/03/23 07:10:19;;;;;;;26.63;3.83;;;10.10;99.90;;;;;;5048283;28;20045;-75
2023/03/23 07:12:45;;;;;;;29.40;6.10;;;10.20;99.90;;;;;;5012058;28;20051;-75
2023/03/23 07:15:12;;;;;;;28.85;4.90;;;10.20;99.90;;;;;;5042191;28;20041;-75
2023/03/23 07:17:39;;;;;;;19.88;4.75;;;10.30;99.90;;;;;;5039573;28;20050;-75
2023/03/23 07:20:06;;;;;;;25.92;5.07;;;10.30;99.90;;;;;;5044379;28;20051;-75
2023/03/23 07:22:32;;;;;;;27.45;6.20;;;10.30;99.90;;;;;;5046232;28;20052;-74
2023/03/23 07:24:58;;;;;;;26.85;4.78;;;10.30;99.90;;;;;;5040157;28;20545;-78
2023/03/23 07:27:24;;;;;;;23.75;5.28;;;10.40;99.90;;;;;;5041217;28;20047;-79
2023/03/23 07:29:50;;;;;;;33.85;4.25;;;10.50;99.90;;;;;;5038744;28;20060;-78
2023/03/23 07:32:16;;;;;;;29.13;6.07;;;10.60;99.90;;;;;;5003151;28;20041;-75
2023/03/23 07:34:42;;;;;;;27.48;4.70;;;10.60;99.90;;;;;;5035993;28;20087;-75
2023/03/23 07:37:08;;;;;;;28.17;5.28;;;10.70;99.90;;;;;;4998891;28;20045;-76
2023/03/23 07:39:34;;;;;;;26.83;6.07;;;10.70;99.90;;;;;;5054968;28;20037;-74
2023/03/23 07:42:00;;;;;;;31.30;5.28;;;10.70;99.90;;;;;;5049425;28;20560;-75
2023/03/23 07:44:25;;;;;;;26.83;5.70;;;10.70;99.90;;;;;;5064999;28;20618;-76
2023/03/23 07:46:51;;;;;;;25.95;3.60;;;10.80;99.90;;;;;;5026847;28;20135;-76
2023/03/23 07:49:18;;;;;;;31.98;5.72;;;10.90;99.90;;;;;;5029049;28;20121;-75
2023/03/23 07:51:44;;;;;;;32.05;4.75;;;10.90;99.90;;;;;;5051216;28;20037;-75
2023/03/23 07:54:10;;;;;;;34.15;6.32;;;10.80;99.90;;;;;;5053443;28;20560;-75
2023/03/23 07:56:39;;;;;;;30.52;5.05;;;10.70;99.90;;;;;;5041636;28;20119;-74
2023/03/23 07:59:05;;;;;;;34.63;5.90;;;10.70;99.90;;;;;;5011509;28;20064;-75
2023/03/23 08:01:32;;;;;;;31.75;6.38;;;10.70;99.90;;;;;;5014998;28;20037;-74
2023/03/23 08:03:59;;;;;;;37.30;6.25;;;10.70;99.90;;;;;;5019472;28;20118;-76
2023/03/23 08:06:25;;;;;;;36.88;4.95;;;10.80;99.90;;;;;;5000390;28;20205;-75
2023/03/23 08:08:50;;;;;;;28.38;5.35;;;10.70;99.90;;;;;;5052353;28;20131;-75
2023/03/23 08:11:18;;;;;;;25.83;5.00;;;10.70;99.90;;;;;;5056263;28;20408;-75
2023/03/23 08:13:47;;;;;;;30.48;6.95;;;10.70;99.90;;;;;;5026810;28;20053;-76
2023/03/23 08:16:14;;;;;;;23.80;5.03;;;10.80;99.90;;;;;;5025911;28;20033;-75
2023/03/23 08:18:41;;;;;;;26.13;4.38;;;10.80;99.90;;;;;;5028479;28;20041;-76
2023/03/23 08:21:09;;;;;;;27.67;5.88;;;10.80;99.90;;;;;;5024719;28;20136;-75
2023/03/23 08:23:36;;;;;;;23.15;5.05;;;11.00;99.90;;;;;;5035099;28;20052;-76
2023/03/23 08:26:06;;;;;;;20.60;4.72;;;11.00;99.90;;;;;;5020743;28;20051;-75
2023/03/23 08:28:35;;;;;;;24.92;4.82;;;11.10;99.90;;;;;;5023346;28;20127;-75
2023/03/23 08:31:07;;;;;;;24.83;5.18;;;11.20;99.90;;;;;;5046073;28;20444;-73
2023/03/23 08:33:33;;;;;;;26.77;4.95;;;11.30;99.90;;;;;;5047863;28;20502;-76
2023/03/23 08:36:00;;;;;;;25.95;4.38;;;11.40;99.90;;;;;;5033883;28;20558;-76
2023/03/23 08:38:27;;;;;;;39.15;6.20;;;11.40;99.90;;;;;;5034189;28;20124;-73
2023/03/23 08:40:59;;;;;;;40.05;5.55;;;11.50;99.90;;;;;;5030338;28;20613;-72
2023/03/23 08:43:25;;;;;;;33.38;5.95;;;11.60;99.90;;;;;;5029023;28;20044;-73
2023/03/23 08:45:54;;;;;;;29.08;5.82;;;11.60;99.90;;;;;;5040659;28;20045;-73
2023/03/23 08:48:22;;;;;;;17.05;4.15;;;11.60;99.90;;;;;;5024228;28;20032;-73
2023/03/23 08:50:48;;;;;;;23.25;5.88;;;11.70;99.90;;;;;;5050698;28;20055;-73
2023/03/23 08:53:15;;;;;;;28.10;5.32;;;11.80;99.90;;;;;;5055962;28;20041;-72
2023/03/23 08:55:42;;;;;;;29.58;5.38;;;11.90;99.90;;;;;;5043728;28;20090;-72
2023/03/23 08:58:08;;;;;;;30.65;5.50;;;11.90;99.90;;;;;;5027712;28;20037;-72
2023/03/23 09:00:34;;;;;;;22.58;4.25;;;11.90;99.90;;;;;;5053258;28;20128;-72
2023/03/23 09:02:59;;;;;;;28.15;6.43;;;12.00;99.90;;;;;;5055496;28;20128;-72
2023/03/23 09:05:27;;;;;;;27.40;5.35;;;11.90;99.90;;;;;;5053392;28;20094;-72
2023/03/23 09:07:55;;;;;;;31.17;5.35;;;12.00;99.90;;;;;;5038640;28;20183;-72
2023/03/23 09:10:22;;;;;;;16.73;4.07;;;11.90;99.90;;;;;;5042889;28;20060;-72
2023/03/23 09:12:48;;;;;;;26.42;5.10;;;12.00;99.90;;;;;;5024296;28;20076;-72
2023/03/23 09:15:16;;;;;;;33.53;6.82;;;12.00;99.90;;;;;;5036831;28;20034;-72
2023/03/23 09:17:48;;;;;;;28.27;6.25;;;12.00;99.90;;;;;;5042399;28;20444;-72
2023/03/23 09:20:15;;;;;;;35.97;5.80;;;12.00;99.90;;;;;;5033590;28;20038;-73
2023/03/23 09:22:43;;;;;;;31.38;5.80;;;12.10;99.90;;;;;;5030389;28;20043;-73
2023/03/23 09:25:12;;;;;;;34.80;5.60;;;12.10;99.90;;;;;;5049866;28;20052;-73
2023/03/23 09:27:41;;;;;;;22.05;4.90;;;12.20;99.90;;;;;;5050838;28;20052;-72
2023/03/23 09:30:10;;;;;;;25.25;5.35;;;12.20;99.90;;;;;;5030054;28;20113;-78
2023/03/23 09:32:37;;;;;;;35.00;5.60;;;12.30;99.90;;;;;;5055280;28;20037;-72
2023/03/23 09:35:07;;;;;;;29.70;5.70;;;12.30;99.90;;;;;;5046996;28;20037;-72
2023/03/23 09:37:35;;;;;;;31.10;5.07;;;12.30;99.90;;;;;;5024897;28;20049;-71
2023/03/23 09:40:03;;;;;;;27.00;5.13;;;12.40;99.90;;;;;;5039817;28;20034;-72
2023/03/23 09:42:47;;;;;;;22.73;4.50;;;12.50;99.90;;;;;;5012120;28;20241;-72
2023/03/23 09:45:39;;;;;;;22.15;4.15;;;12.50;99.90;;;;;;5038777;28;20050;-71
2023/03/23 09:48:32;;;;;;;28.88;5.80;;;12.60;99.90;;;;;;5023275;28;20049;-71
2023/03/23 09:51:21;;;;;;;26.33;5.13;;;12.50;99.90;;;;;;5025089;28;20048;-72
2023/03/23 09:53:53;;;;;;;32.97;6.63;;;12.50;99.90;;;;;;5037440;28;20187;-71
2023/03/23 09:56:20;;;;;;;15.63;3.35;;;12.60;99.90;;;;;;5039158;28;20106;-72
2023/03/23 09:58:52;;;;;;;24.23;4.57;;;12.60;99.90;;;;;;5042933;28;20033;-72
2023/03/23 10:01:41;;;;;;;32.47;4.82;;;12.50;99.90;;;;;;5050388;28;20072;-73
2023/03/23 10:04:15;;;;;;;26.67;4.75;;;12.40;99.90;;;;;;5016468;28;20041;-73
2023/03/23 10:06:40;;;;;;;30.02;5.45;;;12.30;99.90;;;;;;5036239;28;20475;-72
2023/03/23 10:09:12;;;;;;;28.85;5.13;;;12.30;99.90;;;;;;5040577;28;20133;-71
2023/03/23 10:12:02;;;;;;;24.20;3.97;;;12.20;99.90;;;;;;5035038;28;20397;-71
2023/03/23 10:14:34;;;;;;;23.95;5.40;;;12.10;99.90;;;;;;5026383;28;20056;-70
2023/03/23 10:17:16;;;;;;;27.98;6.15;;;12.00;99.90;;;;;;5043892;28;20053;-72
2023/03/23 10:20:01;;;;;;;27.77;5.05;;;11.90;99.90;;;;;;5041627;28;20041;-71
2023/03/23 10:22:33;;;;;;;28.58;5.07;;;11.80;99.90;;;;;;5043323;28;20045;-71
2023/03/23 10:25:19;;;;;;;21.70;3.70;;;11.80;99.90;;;;;;5013536;28;20053;-72
2023/03/23 10:28:10;;;;;;;20.65;3.92;;;11.80;99.90;;;;;;5055793;28;20049;-71
2023/03/23 10:31:03;;;;;;;21.90;5.47;;;12.00;99.90;;;;;;5036342;28;20049;-71
2023/03/23 10:33:34;;;;;;;27.63;4.88;;;12.20;99.90;;;;;;5035178;28;20472;-72
2023/03/23 10:36:06;;;;;;;19.42;4.10;;;12.30;99.90;;;;;;5030840;28;20094;-72
2023/03/23 10:38:37;;;;;;;23.10;4.35;;;12.30;99.90;;;;;;5017785;28;20036;-72
2023/03/23 10:41:11;;;;;;;28.13;5.40;;;12.40;99.90;;;;;;5022956;28;20057;-72
2023/03/23 10:43:37;;;;;;;25.95;5.07;;;12.30;99.90;;;;;;4997275;28;20467;-71
2023/03/23 10:46:26;;;;;;;22.35;4.45;;;12.50;99.90;;;;;;5056709;28;20041;-72
2023/03/23 10:48:53;;;;;;;20.08;5.07;;;12.60;99.90;;;;;;5039031;28;20501;-72
2023/03/23 10:51:23;;;;;;;23.13;5.03;;;12.70;99.90;;;;;;5026049;28;20080;-72
2023/03/23 10:53:57;;;;;;;12.15;2.97;;;12.60;99.90;;;;;;5049632;28;20103;-72
2023/03/23 10:56:29;;;;;;;24.73;4.15;;;12.50;99.90;;;;;;5034219;28;20046;-72
2023/03/23 10:58:55;;;;;;;13.25;3.38;;;12.50;99.90;;;;;;5022314;28;20044;-71
2023/03/23 11:01:34;;;;;;;16.98;3.83;;;12.40;99.90;;;;;;5050563;28;20047;-72
2023/03/23 11:04:01;;;;;;;29.42;4.75;;;12.50;99.90;;;;;;5026219;28;20052;-73
2023/03/23 11:06:37;;;;;;;20.60;4.13;;;12.70;99.90;;;;;;5040881;28;20045;-72
2023/03/23 11:09:11;;;;;;;21.95;4.20;;;12.70;99.90;;;;;;5044862;28;20033;-72
2023/03/23 11:11:42;;;;;;;24.02;3.67;;;12.80;99.90;;;;;;5041711;28;20049;-72
2023/03/23 11:14:29;;;;;;;16.73;4.13;;;12.90;99.90;;;;;;5040380;28;20040;-72
2023/03/23 11:17:01;;;;;;;20.35;4.65;;;12.80;99.90;;;;;;5035210;28;20063;-72
2023/03/23 11:19:36;;;;;;;18.75;4.47;;;12.90;99.90;;;;;;5048609;28;20041;-72
2023/03/23 11:22:07;;;;;;;15.23;3.33;;;13.10;99.90;;;;;;5042405;28;20585;-73
2023/03/23 11:24:46;;;;;;;17.58;3.42;;;13.30;99.90;;;;;;5029629;28;20037;-72
2023/03/23 11:27:13;;;;;;;23.65;4.72;;;13.50;99.90;;;;;;5043114;28;20404;-73
2023/03/23 11:30:19;;;;;;;18.92;3.50;;;13.60;99.90;;;;;;5044377;28;20049;-72
2023/03/23 11:32:46;;;;;;;20.95;4.20;;;13.70;99.90;;;;;;5043396;28;20502;-73
2023/03/23 11:35:19;;;;;;;16.33;3.30;;;13.80;99.90;;;;;;5048447;28;20044;-72
2023/03/23 11:37:58;;;;;;;16.63;3.60;;;13.80;99.90;;;;;;5045471;28;20047;-73
2023/03/23 11:40:31;;;;;;;22.17;4.20;;;13.80;99.90;;;;;;5036376;28;20046;-77
2023/03/23 11:43:01;;;;;;;29.42;4.25;;;13.80;99.90;;;;;;5032535;28;20048;-76
2023/03/23 11:45:48;;;;;;;14.98;2.60;;;13.90;99.90;;;;;;5040446;28;20040;-75
2023/03/23 11:48:45;;;;;;;19.30;4.70;;;13.90;99.90;;;;;;5035652;28;20048;-74
2023/03/23 11:51:28;;;;;;;18.65;4.20;;;14.00;99.90;;;;;;5020702;28;20099;-75
2023/03/23 11:54:19;;;;;;;29.23;5.30;;;14.20;99.90;;;;;;5038325;28;20131;-75
2023/03/23 11:56:46;;;;;;;11.73;2.70;;;14.00;99.90;;;;;;5022128;28;20033;-76
2023/03/23 11:59:15;;;;;;;17.45;3.65;;;14.10;99.90;;;;;;5034306;28;20127;-75
2023/03/23 12:01:53;;;;;;;16.05;4.10;;;14.20;99.90;;;;;;5057935;28;20066;-75
2023/03/23 12:04:49;;;;;;;21.63;5.40;;;14.20;99.90;;;;;;5042140;28;20103;-75
2023/03/23 12:07:31;;;;;;;20.17;4.15;;;14.30;99.90;;;;;;5018501;28;20078;-75
2023/03/23 12:10:24;;;;;;;17.55;4.22;;;14.30;99.90;;;;;;5052434;28;20140;-75
2023/03/23 12:12:50;;;;;;;;;;;14.10;99.90;;;;;;5049308;28;20048;-76
2023/03/23 12:15:22;;;;;;;13.80;3.20;;;14.20;99.90;;;;;;5038703;28;19928;-75
2023/03/23 12:18:06;;;;;;;19.33;5.05;;;14.10;99.90;;;;;;5032616;28;20049;-76
2023/03/23 12:20:39;;;;;;;21.23;4.15;;;14.20;99.90;;;;;;5042095;28;20042;-76
2023/03/23 12:23:21;;;;;;;18.95;3.63;;;14.20;99.90;;;;;;5023446;28;20053;-75
2023/03/23 12:25:55;;;;;;;22.08;5.47;;;14.30;99.90;;;;;;5050143;28;20144;-75
2023/03/23 12:29:00;;;;;;;21.65;3.65;;;14.30;99.90;;;;;;5005494;28;20197;-75
2023/03/23 12:31:51;;;;;;;12.00;2.40;;;14.20;99.90;;;;;;5025494;28;20504;-75
2023/03/23 12:34:32;;;;;;;13.43;3.15;;;14.00;99.90;;;;;;5026451;28;20033;-76
2023/03/23 12:37:19;;;;;;;21.00;3.70;;;14.00;99.90;;;;;;5027786;28;20048;-76
2023/03/23 12:39:52;;;;;;;20.80;4.55;;;14.00;99.90;;;;;;5029490;28;20045;-75
2023/03/23 12:42:32;;;;;;;12.55;3.33;;;14.00;99.90;;;;;;5039141;28;20286;-73
2023/03/23 12:45:01;;;;;;;14.27;4.07;;;14.10;99.90;;;;;;5047103;28;20071;-75
2023/03/23 12:47:37;;;;;;;20.23;4.45;;;14.20;99.90;;;;;;5030785;28;20044;-76
2023/03/23 12:50:28;;;;;;;23.55;4.55;;;14.40;99.90;;;;;;5030147;28;20072;-75
2023/03/23 12:53:45;;;;;;;19.88;3.75;;;14.50;99.90;;;;;;5024827;28;20106;-76
2023/03/23 12:56:46;;;;;;;22.80;3.72;;;14.60;99.90;;;;;;4981753;28;20102;-76